createdAt,value
2019-04-07T00:00:50.261Z,77.23
2019-04-07T00:03:18.630Z,73.77
2019-04-07T00:05:47.245Z,68.10
2019-04-07T00:08:15.676Z,86.47
2019-04-07T00:10:44.679Z,71.93
2019-04-07T00:13:13.707Z,79.27
2019-04-07T00:15:42.081Z,84.23
2019-04-07T00:18:10.464Z,75.40
2019-04-07T00:20:38.855Z,82.17
2019-04-07T00:23:07.237Z,138.17
2019-04-07T00:25:36.284Z,110.77
2019-04-07T00:28:05.428Z,94.83
2019-04-07T00:30:33.921Z,87.73
2019-04-07T00:33:02.300Z,87.20
2019-04-07T00:35:32.572Z,87.80
2019-04-07T00:38:00.823Z,95.87
2019-04-07T00:40:29.487Z,97.33
2019-04-07T00:42:58.321Z,110.97
2019-04-07T00:45:26.836Z,101.27
2019-04-07T00:47:55.897Z,94.50
2019-04-07T00:50:24.400Z,105.33
2019-04-07T00:52:53.111Z,133.80
2019-04-07T00:55:22.086Z,120.87
2019-04-07T00:57:50.800Z,133.77
2019-04-07T01:00:20.330Z,144.07
2019-04-07T01:02:48.783Z,137.23
2019-04-07T01:05:17.180Z,137.80
2019-04-07T01:07:46.354Z,172.03
2019-04-07T01:10:15.146Z,200.73
2019-04-07T01:12:43.649Z,225.20
2019-04-07T01:15:12.515Z,214.57
2019-04-07T01:17:40.984Z,210.53
2019-04-07T01:20:10.680Z,191.77
2019-04-07T01:22:39.767Z,195.13
2019-04-07T01:25:08.951Z,225.40
2019-04-07T01:27:37.859Z,186.33
2019-04-07T01:30:07.178Z,132.33
2019-04-07T01:32:35.801Z,123.37
2019-04-07T01:35:05.816Z,113.20
2019-04-07T01:37:34.244Z,119.10
2019-04-07T01:40:03.124Z,110.70
2019-04-07T01:42:48.817Z,116.10
2019-04-07T01:45:24.533Z,109.90
2019-04-07T01:48:00.723Z,108.67
2019-04-07T01:50:33.904Z,109.83
2019-04-07T01:53:10.049Z,94.90
2019-04-07T01:55:52.240Z,104.47
2019-04-07T01:58:40.709Z,111.13
2019-04-07T02:01:10.889Z,134.23
2019-04-07T02:03:43.590Z,126.67
2019-04-07T02:06:29.999Z,124.57
2019-04-07T02:09:02.980Z,137.47
2019-04-07T02:11:49.613Z,146.50
2019-04-07T02:14:20.175Z,155.07
2019-04-07T02:16:51.118Z,164.03
2019-04-07T02:19:37.847Z,164.37
2019-04-07T02:22:08.473Z,169.43
2019-04-07T02:24:38.868Z,178.67
2019-04-07T02:27:11.487Z,195.23
2019-04-07T02:29:54.179Z,194.40
2019-04-07T02:32:40.655Z,171.10
2019-04-07T02:35:28.044Z,144.20
2019-04-07T02:38:08.267Z,133.60
2019-04-07T02:40:53.930Z,139.10
2019-04-07T02:43:29.631Z,150.03
2019-04-07T02:46:05.835Z,139.10
2019-04-07T02:48:35.927Z,135.87
2019-04-07T02:51:22.697Z,136.63
2019-04-07T02:54:09.442Z,149.00
2019-04-07T02:56:52.377Z,170.13
2019-04-07T02:59:41.491Z,164.00
2019-04-07T03:02:17.805Z,197.30
2019-04-07T03:05:05.016Z,195.30
2019-04-07T03:07:53.104Z,218.73
2019-04-07T03:10:33.265Z,212.00
2019-04-07T03:13:09.352Z,205.97
2019-04-07T03:15:42.800Z,230.27
2019-04-07T03:18:24.216Z,170.73
2019-04-07T03:20:53.860Z,138.50
2019-04-07T03:23:27.345Z,151.37
2019-04-07T03:26:00.836Z,134.13
2019-04-07T03:28:37.117Z,129.43
2019-04-07T03:31:23.950Z,102.93
2019-04-07T03:33:59.518Z,95.00
2019-04-07T03:37:09.710Z,81.03
2019-04-07T03:39:26.607Z,87.53
2019-04-07T03:42:12.512Z,90.93
2019-04-07T03:44:54.615Z,92.27
2019-04-07T03:47:25.795Z,92.00
2019-04-07T03:49:56.929Z,115.63
2019-04-07T03:52:27.293Z,111.90
2019-04-07T03:55:03.048Z,106.50
2019-04-07T03:57:36.329Z,95.60
2019-04-07T04:00:23.191Z,106.97
2019-04-07T04:02:56.680Z,94.90
2019-04-07T04:05:33.911Z,92.57
2019-04-07T04:08:10.091Z,90.53
2019-04-07T04:10:48.440Z,96.77
2019-04-07T04:13:19.970Z,105.10
2019-04-07T04:15:51.440Z,104.37
2019-04-07T04:18:20.558Z,109.17
2019-04-07T04:20:49.128Z,119.33
2019-04-07T04:23:17.842Z,123.40
2019-04-07T04:25:47.075Z,129.17
2019-04-07T04:28:16.351Z,153.50
2019-04-07T04:30:44.816Z,146.83
2019-04-07T04:33:13.218Z,139.47
2019-04-07T04:35:41.610Z,111.97
2019-04-07T04:38:10.286Z,114.70
2019-04-07T04:40:39.516Z,110.00
2019-04-07T04:43:08.951Z,123.73
2019-04-07T04:45:38.467Z,131.33
2019-04-07T04:48:07.057Z,134.77
2019-04-07T04:50:35.530Z,131.37
2019-04-07T04:53:04.106Z,132.73
2019-04-07T04:55:32.690Z,155.37
2019-04-07T04:58:02.056Z,189.63
2019-04-07T05:00:30.645Z,185.07
2019-04-07T05:02:59.383Z,199.53
2019-04-07T05:05:28.079Z,234.93
2019-04-07T05:08:02.725Z,257.20
2019-04-07T05:10:26.613Z,275.13
2019-04-07T05:12:55.028Z,279.50
2019-04-07T05:15:24.162Z,307.17
2019-04-07T05:17:52.616Z,308.13
2019-04-07T05:20:21.720Z,318.93
2019-04-07T05:22:50.167Z,286.03
2019-04-07T05:25:18.560Z,305.10
2019-04-07T05:27:46.949Z,346.73
2019-04-07T05:30:15.640Z,544.77
2019-04-07T05:32:44.339Z,362.50
2019-04-07T05:35:13.185Z,298.93
2019-04-07T05:37:41.803Z,283.27
2019-04-07T05:40:29.559Z,295.37
2019-04-07T05:42:58.687Z,313.57
2019-04-07T05:45:27.913Z,316.47
2019-04-07T05:47:56.387Z,296.30
2019-04-07T05:50:27.488Z,264.13
2019-04-07T05:52:54.900Z,235.17
2019-04-07T05:55:24.365Z,233.40
2019-04-07T05:57:53.182Z,231.60
2019-04-07T06:00:21.866Z,249.57
2019-04-07T06:02:50.769Z,238.27
2019-04-07T06:05:19.703Z,276.13
2019-04-07T06:07:48.130Z,276.90
2019-04-07T06:10:16.688Z,283.93
2019-04-07T06:12:47.355Z,268.60
2019-04-07T06:15:20.238Z,263.70
2019-04-07T06:17:45.811Z,258.43
2019-04-07T06:20:15.917Z,228.40
2019-04-07T06:22:46.642Z,210.40
2019-04-07T06:25:14.596Z,198.83
2019-04-07T06:27:45.263Z,174.80
2019-04-07T06:30:14.518Z,162.53
2019-04-07T06:32:43.976Z,155.93
2019-04-07T06:35:14.138Z,142.07
2019-04-07T06:37:42.931Z,144.73
2019-04-07T06:40:12.245Z,129.77
2019-04-07T06:42:40.815Z,131.93
2019-04-07T06:45:10.978Z,125.30
2019-04-07T06:47:49.868Z,117.03
2019-04-07T06:50:47.573Z,115.23
2019-04-07T06:53:21.106Z,111.53
2019-04-07T06:56:03.055Z,117.93
2019-04-07T06:58:33.085Z,100.77
2019-04-07T07:01:13.230Z,105.60
2019-04-07T07:03:46.387Z,97.10
2019-04-07T07:06:18.189Z,103.60
2019-04-07T07:09:03.487Z,99.73
2019-04-07T07:11:42.846Z,89.87
2019-04-07T07:14:14.359Z,85.00
2019-04-07T07:16:46.698Z,81.60
2019-04-07T07:19:16.951Z,79.00
2019-04-07T07:21:47.786Z,67.90
2019-04-07T07:24:21.468Z,66.43
2019-04-07T07:26:46.312Z,66.43
2019-04-07T07:29:16.235Z,55.30
2019-04-07T07:31:44.907Z,63.07
2019-04-07T07:34:13.363Z,53.93
2019-04-07T07:36:41.996Z,47.77
2019-04-07T07:39:12.520Z,52.37
2019-04-07T07:41:41.037Z,55.00
2019-04-07T07:44:09.784Z,53.97
2019-04-07T07:46:38.594Z,61.50
2019-04-07T07:49:07.127Z,49.67
2019-04-07T07:51:37.726Z,53.80
2019-04-07T07:54:05.673Z,51.17
2019-04-07T07:56:34.562Z,44.03
2019-04-07T07:59:03.577Z,47.00
2019-04-07T08:01:32.339Z,44.97
2019-04-07T08:04:01.920Z,45.93
2019-04-07T08:06:30.520Z,45.93
2019-04-07T08:09:09.993Z,42.30
2019-04-07T08:11:31.529Z,43.47
2019-04-07T08:13:59.155Z,43.37
2019-04-07T08:16:31.226Z,41.93
2019-04-07T08:19:00.300Z,42.63
2019-04-07T08:21:28.063Z,42.40
2019-04-07T08:23:56.796Z,43.20
2019-04-07T08:26:26.023Z,39.23
2019-04-07T08:28:54.768Z,44.13
2019-04-07T08:31:24.044Z,40.70
2019-04-07T08:33:52.796Z,41.83
2019-04-07T08:36:21.304Z,44.53
2019-04-07T08:38:51.800Z,41.30
2019-04-07T08:41:19.808Z,38.10
2019-04-07T08:43:48.402Z,38.00
2019-04-07T08:46:16.864Z,40.87
2019-04-07T08:48:45.435Z,40.93
2019-04-07T08:51:13.825Z,34.10
2019-04-07T08:53:44.974Z,43.40
2019-04-07T08:56:13.196Z,43.47
2019-04-07T08:58:42.481Z,33.80
2019-04-07T09:01:11.056Z,34.10
2019-04-07T09:03:40.002Z,37.20
2019-04-07T09:06:08.507Z,31.23
2019-04-07T09:08:38.228Z,35.50
2019-04-07T09:11:14.628Z,32.03
2019-04-07T09:13:44.753Z,35.07
2019-04-07T09:16:33.680Z,27.90
2019-04-07T09:19:06.921Z,30.60
2019-04-07T09:21:42.168Z,31.90
2019-04-07T09:24:11.444Z,37.33
2019-04-07T09:26:58.046Z,30.07
2019-04-07T09:29:32.448Z,26.07
2019-04-07T09:32:14.523Z,30.70
2019-04-07T09:35:02.628Z,27.77
2019-04-07T09:37:38.883Z,30.37
2019-04-07T09:40:09.422Z,35.83
2019-04-07T09:42:48.204Z,29.80
2019-04-07T09:45:34.574Z,30.30
2019-04-07T09:48:04.592Z,25.53
2019-04-07T09:50:37.599Z,27.07
2019-04-07T09:53:25.683Z,32.53
2019-04-07T09:56:05.745Z,32.67
2019-04-07T09:58:48.452Z,25.87
2019-04-07T10:01:20.805Z,25.23
2019-04-07T10:03:56.168Z,28.13
2019-04-07T10:06:34.891Z,27.93
2019-04-07T10:09:12.476Z,25.87
2019-04-07T10:11:42.513Z,23.03
2019-04-07T10:14:15.528Z,23.57
2019-04-07T10:16:48.428Z,23.37
2019-04-07T10:19:37.417Z,26.33
2019-04-07T10:22:10.698Z,22.63
2019-04-07T10:24:41.534Z,24.37
2019-04-07T10:27:14.626Z,20.27
2019-04-07T10:29:45.632Z,19.50
2019-04-07T10:32:34.027Z,24.33
2019-04-07T10:35:20.423Z,15.53
2019-04-07T10:38:07.521Z,16.23
2019-04-07T10:40:37.914Z,18.43
2019-04-07T10:43:11.681Z,21.10
2019-04-07T10:45:41.828Z,20.03
2019-04-07T10:48:11.872Z,20.47
2019-04-07T10:50:42.629Z,21.97
2019-04-07T10:53:12.692Z,24.80
2019-04-07T10:55:43.099Z,25.07
2019-04-07T10:58:29.419Z,24.70
2019-04-07T11:01:15.597Z,27.13
2019-04-07T11:03:53.952Z,24.73
2019-04-07T11:06:27.195Z,22.47
2019-04-07T11:09:13.547Z,25.43
2019-04-07T11:11:52.426Z,20.57
2019-04-07T11:14:26.833Z,23.77
2019-04-07T11:16:56.904Z,22.07
2019-04-07T11:19:42.249Z,21.77
2019-04-07T11:22:28.552Z,24.17
2019-04-07T11:25:16.890Z,19.33
2019-04-07T11:28:02.589Z,24.53
2019-04-07T11:30:42.052Z,20.15
2019-04-07T11:33:20.981Z,19.73
2019-04-07T11:35:53.756Z,18.27
2019-04-07T11:38:41.887Z,18.37
2019-04-07T11:41:28.847Z,21.12
2019-04-07T11:44:01.981Z,18.92
2019-04-07T11:46:40.984Z,16.85
2019-04-07T11:49:13.084Z,16.95
2019-04-07T11:51:42.758Z,17.15
2019-04-07T11:54:13.026Z,16.65
2019-04-07T11:57:01.969Z,19.67
2019-04-07T11:59:50.300Z,16.27
2019-04-07T12:02:41.041Z,13.40
2019-04-07T12:05:14.539Z,16.37
2019-04-07T12:07:44.728Z,12.25
2019-04-07T12:10:15.857Z,13.75
2019-04-07T12:13:02.344Z,13.72
2019-04-07T12:15:33.462Z,12.63
2019-04-07T12:18:18.650Z,13.80
2019-04-07T12:20:50.755Z,13.55
2019-04-07T12:23:23.395Z,14.53
2019-04-07T12:25:52.742Z,14.47
2019-04-07T12:28:32.208Z,13.60
2019-04-07T12:31:05.368Z,13.68
2019-04-07T12:33:47.499Z,14.58
2019-04-07T12:36:28.910Z,13.20
2019-04-07T12:38:58.537Z,12.00
2019-04-07T12:41:31.869Z,11.53
2019-04-07T12:44:10.344Z,13.13
2019-04-07T12:46:44.239Z,14.37
2019-04-07T12:49:14.465Z,14.18
2019-04-07T12:51:44.507Z,13.10
2019-04-07T12:54:14.535Z,12.45
2019-04-07T12:57:03.635Z,14.18
2019-04-07T12:59:35.675Z,11.53
2019-04-07T13:02:09.321Z,10.53
2019-04-07T13:04:56.040Z,9.10
2019-04-07T13:07:37.478Z,9.73
2019-04-07T13:10:14.627Z,8.77
2019-04-07T13:12:47.841Z,9.20
2019-04-07T13:15:21.644Z,10.70
2019-04-07T13:17:51.767Z,8.47
2019-04-07T13:20:38.621Z,10.20
2019-04-07T13:23:12.332Z,9.43
2019-04-07T13:25:45.466Z,9.73
2019-04-07T13:28:16.315Z,12.20
2019-04-07T13:31:02.978Z,9.33
2019-04-07T13:33:50.074Z,11.07
2019-04-07T13:36:26.835Z,9.10
2019-04-07T13:39:02.787Z,8.70
2019-04-07T13:41:45.867Z,10.53
2019-04-07T13:44:13.251Z,7.77
2019-04-07T13:46:49.692Z,9.97
2019-04-07T13:49:32.799Z,9.60
2019-04-07T13:52:09.615Z,6.62
2019-04-07T13:54:40.365Z,6.70
2019-04-07T13:57:26.140Z,6.37
2019-04-07T14:00:05.283Z,4.90
2019-04-07T14:02:38.889Z,4.65
2019-04-07T14:05:11.249Z,5.08
2019-04-07T14:07:53.203Z,5.67
2019-04-07T14:10:31.822Z,5.42
2019-04-07T14:13:06.258Z,5.20
2019-04-07T14:15:45.555Z,6.78
2019-04-07T14:18:25.638Z,4.28
2019-04-07T14:20:56.200Z,4.25
2019-04-07T14:23:26.315Z,4.42
2019-04-07T14:26:02.395Z,3.30
2019-04-07T14:28:33.387Z,4.45
2019-04-07T14:31:20.715Z,5.87
2019-04-07T14:34:05.815Z,4.85
2019-04-07T14:36:36.162Z,3.90
2019-04-07T14:39:12.850Z,4.05
2019-04-07T14:42:04.786Z,3.83
2019-04-07T14:44:40.191Z,3.67
2019-04-07T14:47:16.245Z,3.83
2019-04-07T14:50:02.536Z,5.53
2019-04-07T14:52:44.837Z,4.25
2019-04-07T14:55:21.163Z,8.93
2019-04-07T14:58:01.271Z,6.95
2019-04-07T15:00:38.585Z,4.92
2019-04-07T15:03:07.342Z,4.42
2019-04-07T15:05:38.761Z,4.00
2019-04-07T15:08:21.580Z,5.97
2019-04-07T15:10:51.968Z,3.80
2019-04-07T15:13:27.046Z,4.85
2019-04-07T15:15:52.788Z,4.35
2019-04-07T15:18:21.549Z,4.80
2019-04-07T15:20:50.557Z,4.53
2019-04-07T15:23:19.771Z,5.40
2019-04-07T15:25:48.283Z,3.95
2019-04-07T15:28:17.413Z,5.10
2019-04-07T15:30:47.878Z,4.40
2019-04-07T15:33:16.060Z,5.78
2019-04-07T15:35:47.289Z,4.12
2019-04-07T15:38:15.339Z,5.37
2019-04-07T15:40:44.841Z,5.95
2019-04-07T15:43:13.363Z,4.67
2019-04-07T15:45:43.545Z,6.78
2019-04-07T15:48:12.456Z,6.80
2019-04-07T15:50:41.723Z,4.35
2019-04-07T15:53:13.447Z,4.53
2019-04-07T15:55:47.628Z,4.42
2019-04-07T15:58:10.720Z,6.30
2019-04-07T16:00:39.143Z,5.87
2019-04-07T16:03:08.488Z,6.23
2019-04-07T16:05:42.036Z,5.83
2019-04-07T16:08:07.107Z,5.80
2019-04-07T16:10:35.989Z,5.97
2019-04-07T16:13:04.754Z,5.63
2019-04-07T16:15:33.280Z,4.50
2019-04-07T16:18:04.766Z,6.93
2019-04-07T16:20:37.147Z,9.53
2019-04-07T16:23:01.927Z,4.75
2019-04-07T16:25:30.353Z,3.50
2019-04-07T16:27:58.820Z,4.30
2019-04-07T16:30:27.492Z,4.00
2019-04-07T16:32:59.714Z,4.60
2019-04-07T16:35:26.392Z,5.47
2019-04-07T16:37:55.396Z,4.00
2019-04-07T16:40:23.937Z,3.87
2019-04-07T16:43:04.346Z,5.87
2019-04-07T16:45:23.251Z,3.60
2019-04-07T16:47:51.644Z,4.77
2019-04-07T16:50:20.700Z,5.60
2019-04-07T16:52:49.864Z,5.27
2019-04-07T16:55:33.573Z,7.50
2019-04-07T16:58:03.154Z,4.07
2019-04-07T17:00:32.393Z,4.50
2019-04-07T17:03:01.332Z,7.07
2019-04-07T17:05:30.229Z,6.60
2019-04-07T17:07:59.473Z,4.37
2019-04-07T17:10:30.974Z,7.87
2019-04-07T17:13:00.476Z,6.43
2019-04-07T17:15:28.485Z,5.30
2019-04-07T17:17:57.034Z,5.80
2019-04-07T17:20:27.836Z,4.80
2019-04-07T17:22:56.776Z,7.83
2019-04-07T17:25:25.578Z,8.53
2019-04-07T17:27:54.017Z,9.53
2019-04-07T17:30:25.854Z,7.77
2019-04-07T17:32:53.647Z,8.23
2019-04-07T17:35:22.027Z,10.80
2019-04-07T17:37:50.972Z,10.13
2019-04-07T17:40:21.585Z,5.73
2019-04-07T17:42:53.038Z,6.43
2019-04-07T17:45:23.574Z,8.23
2019-04-07T17:48:10.042Z,10.27
2019-04-07T17:50:56.543Z,9.23
2019-04-07T17:53:45.447Z,6.40
2019-04-07T17:56:19.998Z,10.73
2019-04-07T17:58:52.365Z,7.73
2019-04-07T18:01:37.824Z,9.17
2019-04-07T18:04:20.804Z,9.87
2019-04-07T18:07:07.928Z,9.27
2019-04-07T18:09:43.822Z,8.93
2019-04-07T18:12:22.616Z,9.77
2019-04-07T18:15:05.783Z,10.80
2019-04-07T18:17:51.120Z,10.47
2019-04-07T18:20:28.240Z,7.13
2019-04-07T18:23:14.356Z,8.97
2019-04-07T18:25:47.880Z,7.97
2019-04-07T18:28:21.569Z,8.20
2019-04-07T18:30:50.035Z,8.53
2019-04-07T18:33:22.868Z,11.93
2019-04-07T18:35:58.611Z,12.67
2019-04-07T18:38:34.588Z,9.17
2019-04-07T18:41:10.651Z,12.33
2019-04-07T18:43:49.176Z,11.93
2019-04-07T18:46:16.882Z,10.77
2019-04-07T18:49:04.423Z,13.83
2019-04-07T18:51:33.645Z,11.97
2019-04-07T18:54:05.373Z,9.73
2019-04-07T18:56:41.830Z,10.77
2019-04-07T18:59:29.184Z,11.50
2019-04-07T19:02:11.879Z,7.40
2019-04-07T19:04:40.192Z,8.83
2019-04-07T19:07:10.923Z,12.33
2019-04-07T19:10:06.294Z,9.70
2019-04-07T19:12:38.752Z,11.63
2019-04-07T19:15:13.463Z,8.87
2019-04-07T19:18:02.152Z,9.87
2019-04-07T19:20:34.122Z,8.90
2019-04-07T19:23:09.902Z,10.40
2019-04-07T19:25:44.410Z,9.63
2019-04-07T19:28:18.044Z,9.90
2019-04-07T19:30:55.160Z,8.77
2019-04-07T19:33:26.831Z,9.80
2019-04-07T19:35:57.186Z,9.90
2019-04-07T19:38:29.869Z,9.67
2019-04-07T19:41:02.762Z,12.37
2019-04-07T19:43:53.067Z,15.60
2019-04-07T19:46:26.441Z,11.40
2019-04-07T19:48:57.192Z,11.00
2019-04-07T19:51:30.613Z,15.30
2019-04-07T19:54:06.781Z,10.43
2019-04-07T19:56:39.503Z,13.90
2019-04-07T19:59:10.337Z,14.13
2019-04-07T20:01:53.035Z,11.80
2019-04-07T20:04:42.345Z,16.87
2019-04-07T20:07:20.258Z,13.50
2019-04-07T20:10:08.839Z,15.00
2019-04-07T20:12:58.286Z,19.77
2019-04-07T20:15:45.069Z,40.97
2019-04-07T20:18:18.709Z,37.03
2019-04-07T20:20:48.808Z,23.83
2019-04-07T20:23:30.975Z,29.77
2019-04-07T20:25:59.810Z,43.43
2019-04-07T20:28:32.490Z,55.00
2019-04-07T20:31:21.924Z,34.17
2019-04-07T20:34:02.329Z,26.43
2019-04-07T20:36:30.459Z,23.73
2019-04-07T20:39:09.471Z,47.30
2019-04-07T20:41:54.707Z,80.03
2019-04-07T20:44:39.768Z,49.37
2019-04-07T20:47:21.764Z,35.27
2019-04-07T20:50:10.716Z,24.67
2019-04-07T20:52:46.064Z,21.50
2019-04-07T20:55:19.272Z,18.47
2019-04-07T20:57:54.062Z,17.00
2019-04-07T21:00:39.192Z,15.23
2019-04-07T21:03:26.558Z,14.87
2019-04-07T21:06:00.057Z,24.47
2019-04-07T21:08:39.915Z,27.43
2019-04-07T21:11:13.114Z,37.47
2019-04-07T21:13:52.498Z,43.93
2019-04-07T21:16:39.023Z,48.93
2019-04-07T21:19:25.714Z,52.83
2019-04-07T21:22:12.432Z,56.47
2019-04-07T21:24:45.598Z,61.10
2019-04-07T21:27:18.588Z,66.93
2019-04-07T21:30:06.887Z,65.60
2019-04-07T21:32:48.627Z,69.53
2019-04-07T21:35:21.289Z,75.13
2019-04-07T21:38:08.107Z,75.83
2019-04-07T21:40:48.013Z,78.23
2019-04-07T21:43:24.319Z,77.77
2019-04-07T21:45:58.867Z,82.07
2019-04-07T21:48:41.298Z,84.03
2019-04-07T21:51:16.470Z,84.07
2019-04-07T21:53:48.819Z,82.27
2019-04-07T21:56:18.873Z,88.27
2019-04-07T21:58:58.905Z,83.30
2019-04-07T22:01:41.310Z,86.87
2019-04-07T22:04:11.344Z,88.80
2019-04-07T22:06:53.563Z,85.90
2019-04-07T22:09:24.638Z,87.70
2019-04-07T22:11:54.668Z,87.70
2019-04-07T22:14:23.539Z,91.27
2019-04-07T22:16:51.944Z,93.53
2019-04-07T22:19:20.337Z,96.77
2019-04-07T22:21:53.290Z,96.53
2019-04-07T22:24:19.055Z,93.93
2019-04-07T22:26:49.922Z,93.67
2019-04-07T22:29:18.238Z,91.13
2019-04-07T22:31:51.455Z,91.53
2019-04-07T22:34:20.753Z,91.27
2019-04-07T22:36:49.687Z,90.33
2019-04-07T22:39:18.453Z,91.23
2019-04-07T22:41:46.925Z,90.63
2019-04-07T22:44:15.552Z,86.57
2019-04-07T22:46:48.097Z,93.30
2019-04-07T22:49:14.188Z,91.60
2019-04-07T22:51:44.649Z,85.33
2019-04-07T22:54:12.707Z,92.50
2019-04-07T22:56:41.113Z,92.73
2019-04-07T22:59:11.215Z,83.37
2019-04-07T23:01:39.595Z,91.37
2019-04-07T23:04:08.006Z,86.63
2019-04-07T23:06:36.383Z,90.80
2019-04-07T23:09:07.880Z,89.40
2019-04-07T23:11:36.379Z,93.20
2019-04-07T23:14:04.832Z,90.70
2019-04-07T23:16:33.244Z,96.20
2019-04-07T23:19:02.622Z,92.70
2019-04-07T23:21:31.964Z,89.83
2019-04-07T23:24:01.266Z,90.70
2019-04-07T23:26:29.879Z,94.50
2019-04-07T23:28:58.503Z,96.03
2019-04-07T23:31:27.945Z,96.87
2019-04-07T23:33:56.515Z,97.87
2019-04-07T23:36:24.988Z,95.90
2019-04-07T23:38:53.844Z,97.37
2019-04-07T23:41:22.343Z,101.33
2019-04-07T23:43:50.735Z,103.10
2019-04-07T23:46:24.286Z,102.10
2019-04-07T23:49:08.583Z,103.57
2019-04-07T23:51:37.188Z,105.23
2019-04-07T23:54:09.011Z,99.87
2019-04-07T23:56:39.411Z,102.20
2019-04-07T23:59:08.200Z,107.43
